createdAt,value
2019-04-05T00:01:05.425Z,96.11
2019-04-05T00:03:33.925Z,96.33
2019-04-05T00:06:02.775Z,96.05
2019-04-05T00:08:31.445Z,95.96
2019-04-05T00:11:00.855Z,95.90
2019-04-05T00:13:29.428Z,96.07
2019-04-05T00:15:58.003Z,96.08
2019-04-05T00:18:26.572Z,96.10
2019-04-05T00:20:55.192Z,96.07
2019-04-05T00:23:23.788Z,96.03
2019-04-05T00:25:52.383Z,96.05
2019-04-05T00:28:21.190Z,96.06
2019-04-05T00:30:49.774Z,96.37
2019-04-05T00:33:18.511Z,96.16
2019-04-05T00:35:47.083Z,96.31
2019-04-05T00:38:15.662Z,96.48
2019-04-05T00:40:44.235Z,96.37
2019-04-05T00:43:13.084Z,96.43
2019-04-05T00:45:41.656Z,96.47
2019-04-05T00:48:10.232Z,96.48
2019-04-05T00:50:38.809Z,96.37
2019-04-05T00:53:07.507Z,96.29
2019-04-05T00:55:36.086Z,96.20
2019-04-05T00:58:04.757Z,96.23
2019-04-05T01:00:33.425Z,96.14
2019-04-05T01:03:02.054Z,96.05
2019-04-05T01:05:30.744Z,95.98
2019-04-05T01:07:59.484Z,96.03
2019-04-05T01:10:28.058Z,96.02
2019-04-05T01:12:56.745Z,96.17
2019-04-05T01:15:25.342Z,96.17
2019-04-05T01:17:54.318Z,96.14
2019-04-05T01:20:25.011Z,96.41
2019-04-05T01:22:54.299Z,96.38
2019-04-05T01:25:23.376Z,96.48
2019-04-05T01:27:52.246Z,96.43
2019-04-05T01:30:20.859Z,96.37
2019-04-05T01:32:49.606Z,96.32
2019-04-05T01:35:18.319Z,96.30
2019-04-05T01:37:46.978Z,96.29
2019-04-05T01:40:15.970Z,96.20
2019-04-05T01:42:45.047Z,96.21
2019-04-05T01:45:13.955Z,96.15
2019-04-05T01:47:42.527Z,96.12
2019-04-05T01:50:11.526Z,96.16
2019-04-05T01:52:41.114Z,96.26
2019-04-05T01:55:10.487Z,96.23
2019-04-05T01:57:39.062Z,96.26
2019-04-05T02:00:10.556Z,96.14
2019-04-05T02:02:39.217Z,96.09
2019-04-05T02:05:09.290Z,96.06
2019-04-05T02:07:38.395Z,96.11
2019-04-05T02:10:08.469Z,96.06
2019-04-05T02:12:37.439Z,96.16
2019-04-05T02:15:10.778Z,95.75
2019-04-05T02:17:39.358Z,96.06
2019-04-05T02:20:08.831Z,96.08
2019-04-05T02:22:37.702Z,96.08
2019-04-05T02:25:06.984Z,96.04
2019-04-05T02:27:35.588Z,96.08
2019-04-05T02:30:06.216Z,96.11
2019-04-05T02:32:34.784Z,96.16
2019-04-05T02:35:04.119Z,96.27
2019-04-05T02:37:32.723Z,96.30
2019-04-05T02:40:01.301Z,96.35
2019-04-05T02:42:30.685Z,96.33
2019-04-05T02:44:59.557Z,96.45
2019-04-05T02:47:28.447Z,96.50
2019-04-05T02:49:58.612Z,96.47
2019-04-05T02:52:28.393Z,96.41
2019-04-05T02:54:58.606Z,96.26
2019-04-05T02:57:28.686Z,96.20
2019-04-05T02:59:57.873Z,96.29
2019-04-05T03:02:27.268Z,96.27
2019-04-05T03:04:56.723Z,96.40
2019-04-05T03:07:27.434Z,96.41
2019-04-05T03:09:57.711Z,96.48
2019-04-05T03:12:26.884Z,96.55
2019-04-05T03:14:55.959Z,96.51
2019-04-05T03:17:25.740Z,96.46
2019-04-05T03:19:57.247Z,96.59
2019-04-05T03:22:28.413Z,96.49
2019-04-05T03:24:59.125Z,96.41
2019-04-05T03:27:30.620Z,96.58
2019-04-05T03:30:00.034Z,96.57
2019-04-05T03:32:28.617Z,96.70
2019-04-05T03:34:57.392Z,96.71
2019-04-05T03:37:26.296Z,96.74
2019-04-05T03:39:55.799Z,96.75
2019-04-05T03:42:24.847Z,96.78
2019-04-05T03:44:53.503Z,96.84
2019-04-05T03:47:22.222Z,96.89
2019-04-05T03:49:50.930Z,96.90
2019-04-05T03:52:19.629Z,96.79
2019-04-05T03:54:48.401Z,97.08
2019-04-05T03:57:17.099Z,97.08
2019-04-05T03:59:45.762Z,96.70
2019-04-05T04:02:14.544Z,96.69
2019-04-05T04:04:43.226Z,96.81
2019-04-05T04:07:11.833Z,96.93
2019-04-05T04:09:40.782Z,96.94
2019-04-05T04:12:09.726Z,97.08
2019-04-05T04:14:39.306Z,97.18
2019-04-05T04:17:12.891Z,97.21
2019-04-05T04:19:38.822Z,97.16
2019-04-05T04:22:22.649Z,97.18
2019-04-05T04:24:51.789Z,97.13
2019-04-05T04:27:20.968Z,97.01
2019-04-05T04:29:49.578Z,97.06
2019-04-05T04:32:18.755Z,97.01
2019-04-05T04:34:47.828Z,97.06
2019-04-05T04:37:16.614Z,97.03
2019-04-05T04:39:45.383Z,97.00
2019-04-05T04:42:15.582Z,96.95
2019-04-05T04:44:44.456Z,96.95
2019-04-05T04:47:25.377Z,96.91
2019-04-05T04:49:44.964Z,96.89
2019-04-05T04:52:14.117Z,96.84
2019-04-05T04:54:42.690Z,96.79
2019-04-05T04:57:11.442Z,96.71
2019-04-05T04:59:40.146Z,96.80
2019-04-05T05:02:09.031Z,96.84
2019-04-05T05:04:37.707Z,96.67
2019-04-05T05:07:06.581Z,96.60
2019-04-05T05:09:35.639Z,96.62
2019-04-05T05:12:04.409Z,96.59
2019-04-05T05:14:33.382Z,96.56
2019-04-05T05:17:01.963Z,96.55
2019-04-05T05:19:30.562Z,96.48
2019-04-05T05:21:59.195Z,96.35
2019-04-05T05:24:28.080Z,96.45
2019-04-05T05:26:56.880Z,96.43
2019-04-05T05:29:25.502Z,96.48
2019-04-05T05:31:54.387Z,96.47
2019-04-05T05:34:22.971Z,96.47
2019-04-05T05:36:51.844Z,96.37
2019-04-05T05:39:20.632Z,96.37
2019-04-05T05:41:49.197Z,96.32
2019-04-05T05:44:18.079Z,96.30
2019-04-05T05:46:46.675Z,96.25
2019-04-05T05:49:15.297Z,96.33
2019-04-05T05:51:44.870Z,96.31
2019-04-05T05:54:13.442Z,96.35
2019-04-05T05:56:42.022Z,96.35
2019-04-05T05:59:10.601Z,96.22
2019-04-05T06:01:39.548Z,96.31
2019-04-05T06:04:08.120Z,96.33
2019-04-05T06:06:37.124Z,96.42
2019-04-05T06:09:07.837Z,96.34
2019-04-05T06:11:36.495Z,96.19
2019-04-05T06:14:05.179Z,96.26
2019-04-05T06:16:45.949Z,96.24
2019-04-05T06:19:04.199Z,96.22
2019-04-05T06:21:32.772Z,96.22
2019-04-05T06:24:01.348Z,96.20
2019-04-05T06:26:29.928Z,96.26
2019-04-05T06:28:58.551Z,96.15
2019-04-05T06:31:27.158Z,96.12
2019-04-05T06:33:55.667Z,96.27
2019-04-05T06:36:24.237Z,96.15
2019-04-05T06:38:52.898Z,96.03
2019-04-05T06:41:21.472Z,95.93
2019-04-05T06:43:50.043Z,95.80
2019-04-05T06:46:18.616Z,95.68
2019-04-05T06:48:47.199Z,95.69
2019-04-05T06:51:15.823Z,95.50
2019-04-05T06:53:44.501Z,95.27
2019-04-05T06:56:13.107Z,95.06
2019-04-05T06:58:41.682Z,94.86
2019-04-05T07:01:10.257Z,94.63
2019-04-05T07:03:39.031Z,94.34
2019-04-05T07:06:07.620Z,94.31
2019-04-05T07:08:36.195Z,94.28
2019-04-05T07:11:04.782Z,93.54
2019-04-05T07:13:33.371Z,93.46
2019-04-05T07:16:02.074Z,93.02
2019-04-05T07:18:35.612Z,93.14
2019-04-05T07:21:00.947Z,92.89
2019-04-05T07:23:29.530Z,92.54
2019-04-05T07:25:58.178Z,92.51
2019-04-05T07:28:26.819Z,92.42
2019-04-05T07:30:55.390Z,92.37
2019-04-05T07:33:23.978Z,92.36
2019-04-05T07:35:52.555Z,91.67
2019-04-05T07:38:21.138Z,91.25
2019-04-05T07:40:49.745Z,89.69
2019-04-05T07:43:18.363Z,89.04
2019-04-05T07:45:46.956Z,88.67
2019-04-05T07:48:15.547Z,88.61
2019-04-05T07:50:44.659Z,88.17
2019-04-05T07:53:13.267Z,87.94
2019-04-05T07:55:41.946Z,87.06
2019-04-05T07:58:10.623Z,87.83
2019-04-05T08:00:55.902Z,87.30
2019-04-05T08:03:24.890Z,87.16
2019-04-05T08:05:53.683Z,86.65
2019-04-05T08:08:40.305Z,86.72
2019-04-05T08:11:09.276Z,86.65
2019-04-05T08:13:40.691Z,86.29
2019-04-05T08:16:09.294Z,85.87
2019-04-05T08:18:37.872Z,85.65
2019-04-05T08:21:06.575Z,85.99
2019-04-05T08:23:35.144Z,84.88
2019-04-05T08:26:03.719Z,84.38
2019-04-05T08:28:32.649Z,83.79
2019-04-05T08:31:01.242Z,82.96
2019-04-05T08:33:29.814Z,82.30
2019-04-05T08:35:58.441Z,82.79
2019-04-05T08:38:27.024Z,82.03
2019-04-05T08:40:55.934Z,82.02
2019-04-05T08:43:24.904Z,81.55
2019-04-05T08:45:53.930Z,80.97
2019-04-05T08:48:22.931Z,80.78
2019-04-05T08:50:51.623Z,80.40
2019-04-05T08:53:20.206Z,80.64
2019-04-05T08:55:48.789Z,80.58
2019-04-05T08:58:17.436Z,80.58
2019-04-05T09:00:46.011Z,80.65
2019-04-05T09:03:14.587Z,80.83
2019-04-05T09:05:43.242Z,81.42
2019-04-05T09:08:11.824Z,81.21
2019-04-05T09:10:41.191Z,80.92
2019-04-05T09:13:09.961Z,80.75
2019-04-05T09:15:38.539Z,81.29
2019-04-05T09:18:07.210Z,81.43
2019-04-05T09:20:36.261Z,81.33
2019-04-05T09:23:04.922Z,80.68
2019-04-05T09:25:33.767Z,81.20
2019-04-05T09:28:02.618Z,80.91
2019-04-05T09:30:31.278Z,80.79
2019-04-05T09:32:59.852Z,80.09
2019-04-05T09:35:28.915Z,79.85
2019-04-05T09:37:57.483Z,79.26
2019-04-05T09:40:26.156Z,79.64
2019-04-05T09:42:54.813Z,78.80
2019-04-05T09:45:23.458Z,78.41
2019-04-05T09:47:52.381Z,78.62
2019-04-05T09:50:21.075Z,78.10
2019-04-05T09:52:50.828Z,78.64
2019-04-05T09:55:20.104Z,78.58
2019-04-05T09:57:48.683Z,78.92
2019-04-05T10:00:28.237Z,78.76
2019-04-05T10:02:57.104Z,79.43
2019-04-05T10:05:25.703Z,78.64
2019-04-05T10:07:55.687Z,78.58
2019-04-05T10:10:24.717Z,78.17
2019-04-05T10:12:53.302Z,78.55
2019-04-05T10:15:22.230Z,78.55
2019-04-05T10:17:50.836Z,78.55
2019-04-05T10:20:19.635Z,78.12
2019-04-05T10:22:48.314Z,78.19
2019-04-05T10:25:17.941Z,77.70
2019-04-05T10:27:46.687Z,77.84
2019-04-05T10:30:15.649Z,77.99
2019-04-05T10:32:46.116Z,77.87
2019-04-05T10:35:15.052Z,77.59
2019-04-05T10:37:43.681Z,77.81
2019-04-05T10:40:12.800Z,77.66
2019-04-05T10:42:41.415Z,76.39
2019-04-05T10:45:11.748Z,75.95
2019-04-05T10:47:40.337Z,76.09
2019-04-05T10:50:11.525Z,76.10
2019-04-05T10:52:40.177Z,76.09
2019-04-05T10:55:09.187Z,76.67
2019-04-05T10:57:38.583Z,76.16
2019-04-05T11:00:10.294Z,76.61
2019-04-05T11:02:39.269Z,76.95
2019-04-05T11:05:07.951Z,76.72
2019-04-05T11:07:36.565Z,76.44
2019-04-05T11:10:07.326Z,75.98
2019-04-05T11:12:35.947Z,76.10
2019-04-05T11:15:07.453Z,75.35
2019-04-05T11:17:36.137Z,76.01
2019-04-05T11:20:20.736Z,75.75
2019-04-05T11:22:38.527Z,75.42
2019-04-05T11:25:12.954Z,75.51
2019-04-05T11:27:41.661Z,75.22
2019-04-05T11:30:10.996Z,75.58
2019-04-05T11:32:40.101Z,75.69
2019-04-05T11:35:09.484Z,75.69
2019-04-05T11:37:39.738Z,75.93
2019-04-05T11:40:10.737Z,75.40
2019-04-05T11:42:40.919Z,75.01
2019-04-05T11:45:10.283Z,75.37
2019-04-05T11:47:41.148Z,75.59
2019-04-05T11:50:11.679Z,75.04
2019-04-05T11:52:40.288Z,75.61
2019-04-05T11:55:09.060Z,75.51
2019-04-05T11:57:41.147Z,75.95
2019-04-05T12:00:15.622Z,76.07
2019-04-05T12:02:45.910Z,76.42
2019-04-05T12:05:16.078Z,76.68
2019-04-05T12:07:44.659Z,76.96
2019-04-05T12:10:13.637Z,77.35
2019-04-05T12:12:42.261Z,77.58
2019-04-05T12:15:12.285Z,77.56
2019-04-05T12:17:41.106Z,78.07
2019-04-05T12:20:10.178Z,78.06
2019-04-05T12:22:38.811Z,78.68
2019-04-05T12:25:08.332Z,78.93
2019-04-05T12:27:37.406Z,78.85
2019-04-05T12:30:09.602Z,78.89
2019-04-05T12:32:41.278Z,79.23
2019-04-05T12:35:08.716Z,79.03
2019-04-05T12:37:49.620Z,78.75
2019-04-05T12:40:10.253Z,78.93
2019-04-05T12:42:42.704Z,78.93
2019-04-05T12:45:14.722Z,78.70
2019-04-05T12:47:41.047Z,79.01
2019-04-05T12:50:14.096Z,78.65
2019-04-05T12:52:42.173Z,78.97
2019-04-05T12:55:10.985Z,78.77
2019-04-05T12:57:39.603Z,78.43
2019-04-05T13:00:13.296Z,78.01
2019-04-05T13:02:42.250Z,78.26
2019-04-05T13:05:11.518Z,77.12
2019-04-05T13:07:40.169Z,76.81
2019-04-05T13:10:09.208Z,76.88
2019-04-05T13:12:38.089Z,76.90
2019-04-05T13:15:12.848Z,77.42
2019-04-05T13:17:38.067Z,77.30
2019-04-05T13:20:08.394Z,77.76
2019-04-05T13:22:37.011Z,77.73
2019-04-05T13:25:10.790Z,77.57
2019-04-05T13:27:41.242Z,77.36
2019-04-05T13:30:09.299Z,77.72
2019-04-05T13:32:38.146Z,78.15
2019-04-05T13:35:07.288Z,78.18
2019-04-05T13:37:35.868Z,78.34
2019-04-05T13:40:06.792Z,78.60
2019-04-05T13:42:35.688Z,78.05
2019-04-05T13:45:06.481Z,78.74
2019-04-05T13:47:37.981Z,78.70
2019-04-05T13:50:10.855Z,78.83
2019-04-05T13:52:37.355Z,78.84
2019-04-05T13:55:10.346Z,79.14
2019-04-05T13:57:38.434Z,79.21
2019-04-05T14:00:10.592Z,79.21
2019-04-05T14:02:39.158Z,79.21
2019-04-05T14:05:08.256Z,79.39
2019-04-05T14:07:37.031Z,79.79
2019-04-05T14:10:10.744Z,79.49
2019-04-05T14:12:40.111Z,79.62
2019-04-05T14:15:10.704Z,79.82
2019-04-05T14:17:39.041Z,79.87
2019-04-05T14:20:09.365Z,79.55
2019-04-05T14:22:38.092Z,79.77
2019-04-05T14:25:08.207Z,79.75
2019-04-05T14:27:36.780Z,80.05
2019-04-05T14:30:07.118Z,80.19
2019-04-05T14:32:35.847Z,80.02
2019-04-05T14:35:07.985Z,80.21
2019-04-05T14:37:36.852Z,80.19
2019-04-05T14:40:08.747Z,80.22
2019-04-05T14:42:37.527Z,80.58
2019-04-05T14:45:07.607Z,80.33
2019-04-05T14:47:36.273Z,80.58
2019-04-05T14:50:09.277Z,80.87
2019-04-05T14:52:38.366Z,80.80
2019-04-05T14:55:07.252Z,81.08
2019-04-05T14:57:36.727Z,81.62
2019-04-05T15:00:10.225Z,81.56
2019-04-05T15:02:38.979Z,81.92
2019-04-05T15:05:08.425Z,82.15
2019-04-05T15:07:37.955Z,82.41
2019-04-05T15:10:07.167Z,82.71
2019-04-05T15:12:35.901Z,82.91
2019-04-05T15:15:06.739Z,82.92
2019-04-05T15:17:47.321Z,83.18
2019-04-05T15:20:10.187Z,83.51
2019-04-05T15:22:41.550Z,83.93
2019-04-05T15:25:09.735Z,84.11
2019-04-05T15:27:38.413Z,84.49
2019-04-05T15:30:08.384Z,85.00
2019-04-05T15:32:37.906Z,85.54
2019-04-05T15:35:08.491Z,85.82
2019-04-05T15:37:37.646Z,86.07
2019-04-05T15:40:07.965Z,86.41
2019-04-05T15:42:36.721Z,86.68
2019-04-05T15:45:10.960Z,86.85
2019-04-05T15:47:39.629Z,87.15
2019-04-05T15:50:08.888Z,87.35
2019-04-05T15:52:37.582Z,87.67
2019-04-05T15:55:06.922Z,87.74
2019-04-05T15:57:35.520Z,88.13
2019-04-05T16:00:08.815Z,88.35
2019-04-05T16:02:37.791Z,88.61
2019-04-05T16:05:08.802Z,88.52
2019-04-05T16:07:37.380Z,88.99
2019-04-05T16:10:10.372Z,89.14
2019-04-05T16:12:39.430Z,89.41
2019-04-05T16:15:09.818Z,89.97
2019-04-05T16:17:38.521Z,89.75
2019-04-05T16:20:11.569Z,90.27
2019-04-05T16:22:40.182Z,90.39
2019-04-05T16:25:09.358Z,90.88
2019-04-05T16:27:38.242Z,91.03
2019-04-05T16:30:07.571Z,90.96
2019-04-05T16:32:36.234Z,91.08
2019-04-05T16:35:06.716Z,91.43
2019-04-05T16:37:35.379Z,91.43
2019-04-05T16:40:08.697Z,91.81
2019-04-05T16:42:37.325Z,91.99
2019-04-05T16:45:07.807Z,91.90
2019-04-05T16:47:36.472Z,92.04
2019-04-05T16:50:09.555Z,92.28
2019-04-05T16:52:44.562Z,92.30
2019-04-05T16:55:09.600Z,92.53
2019-04-05T16:57:38.157Z,92.92
2019-04-05T17:00:11.176Z,93.38
2019-04-05T17:02:39.844Z,93.62
2019-04-05T17:05:09.226Z,93.70
2019-04-05T17:07:37.859Z,93.69
2019-04-05T17:10:06.563Z,93.76
2019-04-05T17:12:35.175Z,94.11
2019-04-05T17:15:05.164Z,94.04
2019-04-05T17:17:33.758Z,94.16
2019-04-05T17:20:02.438Z,94.72
2019-04-05T17:22:31.790Z,94.72
2019-04-05T17:25:00.931Z,94.30
2019-04-05T17:27:29.705Z,94.40
2019-04-05T17:29:58.357Z,94.33
2019-04-05T17:32:26.939Z,94.43
2019-04-05T17:34:55.534Z,94.50
2019-04-05T17:37:26.565Z,94.64
2019-04-05T17:39:54.850Z,94.29
2019-04-05T17:42:23.479Z,94.33
2019-04-05T17:44:51.983Z,94.59
2019-04-05T17:47:20.571Z,94.91
2019-04-05T17:49:49.179Z,94.52
2019-04-05T17:52:18.017Z,94.61
2019-04-05T17:54:46.604Z,94.52
2019-04-05T17:57:15.521Z,94.67
2019-04-05T17:59:44.673Z,94.67
2019-04-05T18:02:13.319Z,94.82
2019-04-05T18:04:42.027Z,94.75
2019-04-05T18:07:11.039Z,94.77
2019-04-05T18:09:40.895Z,94.79
2019-04-05T18:12:09.572Z,94.82
2019-04-05T18:14:38.230Z,94.78
2019-04-05T18:17:06.915Z,94.85
2019-04-05T18:19:35.486Z,94.80
2019-04-05T18:22:04.255Z,94.68
2019-04-05T18:24:32.835Z,94.75
2019-04-05T18:27:01.530Z,94.40
2019-04-05T18:29:30.109Z,94.40
2019-04-05T18:31:58.832Z,94.67
2019-04-05T18:34:27.473Z,94.78
2019-04-05T18:36:56.448Z,94.87
2019-04-05T18:39:25.031Z,95.00
2019-04-05T18:41:53.722Z,95.06
2019-04-05T18:44:22.554Z,95.06
2019-04-05T18:46:52.023Z,95.15
2019-04-05T18:49:20.784Z,95.09
2019-04-05T18:51:49.674Z,95.21
2019-04-05T18:54:19.254Z,95.14
2019-04-05T18:56:48.419Z,95.09
2019-04-05T18:59:18.229Z,95.30
2019-04-05T19:01:47.296Z,95.29
2019-04-05T19:04:16.653Z,95.73
2019-04-05T19:06:46.281Z,95.57
2019-04-05T19:09:16.409Z,95.85
2019-04-05T19:11:46.278Z,95.88
2019-04-05T19:14:16.310Z,95.69
2019-04-05T19:16:46.288Z,95.89
2019-04-05T19:19:17.937Z,96.22
2019-04-05T19:21:47.611Z,96.32
2019-04-05T19:24:18.472Z,96.28
2019-04-05T19:26:48.533Z,96.58
2019-04-05T19:29:18.824Z,96.79
2019-04-05T19:49:26.711Z,96.85
2019-04-05T19:51:56.152Z,96.68
2019-04-05T19:54:26.468Z,96.62
2019-04-05T19:56:56.739Z,96.53
2019-04-05T19:59:26.531Z,96.65
2019-04-05T20:01:56.040Z,96.58
2019-04-05T20:04:26.265Z,96.64
2019-04-05T20:06:58.770Z,96.72
2019-04-05T20:09:28.892Z,96.67
2019-04-05T20:11:59.063Z,96.51
2019-04-05T20:14:29.091Z,96.59
2019-04-05T20:16:58.223Z,96.67
2019-04-05T20:19:28.377Z,96.65
2019-04-05T20:21:58.142Z,96.55
2019-04-05T20:24:27.600Z,96.57
2019-04-05T20:26:57.108Z,96.46
2019-04-05T20:29:26.018Z,96.61
2019-04-05T20:31:54.877Z,96.67
2019-04-05T20:34:24.500Z,96.61
2019-04-05T20:36:53.476Z,96.50
2019-04-05T20:39:22.499Z,96.72
2019-04-05T20:41:51.244Z,96.53
2019-04-05T20:44:19.953Z,96.76
2019-04-05T20:46:48.589Z,96.67
2019-04-05T20:49:17.236Z,96.69
2019-04-05T20:51:45.976Z,96.70
2019-04-05T20:54:24.246Z,96.72
2019-04-05T20:56:45.284Z,96.53
2019-04-05T20:59:14.132Z,96.72
2019-04-05T21:01:42.778Z,96.49
2019-04-05T21:04:11.562Z,96.47
2019-04-05T21:06:40.454Z,96.45
2019-04-05T21:09:09.635Z,96.55
2019-04-05T21:11:38.374Z,96.78
2019-04-05T21:14:07.297Z,96.92
2019-04-05T21:16:36.476Z,97.00
2019-04-05T21:19:05.217Z,96.85
2019-04-05T21:21:33.781Z,96.95
2019-04-05T21:24:02.347Z,96.93
2019-04-05T21:26:30.966Z,96.97
2019-04-05T21:28:59.566Z,96.97
2019-04-05T21:31:28.132Z,97.25
2019-04-05T21:33:57.065Z,97.16
2019-04-05T21:36:25.595Z,97.51
2019-04-05T21:38:54.320Z,97.29
2019-04-05T21:41:23.004Z,97.23
2019-04-05T21:43:51.600Z,97.16
2019-04-05T21:46:20.303Z,97.06
2019-04-05T21:48:49.597Z,96.95
2019-04-05T21:51:18.221Z,97.07
2019-04-05T21:53:47.509Z,97.16
2019-04-05T21:56:16.154Z,96.86
2019-04-05T21:58:44.731Z,96.97
2019-04-05T22:01:13.627Z,96.79
2019-04-05T22:03:42.220Z,96.87
2019-04-05T22:06:10.800Z,96.92
2019-04-05T22:08:39.372Z,96.82
2019-04-05T22:11:08.323Z,96.76
2019-04-05T22:13:36.937Z,96.93
2019-04-05T22:16:05.679Z,96.94
2019-04-05T22:18:34.253Z,97.13
2019-04-05T22:21:02.984Z,96.95
2019-04-05T22:23:31.586Z,97.17
2019-04-05T22:26:00.338Z,97.23
2019-04-05T22:28:28.947Z,97.12
2019-04-05T22:30:57.632Z,97.13
2019-04-05T22:33:26.305Z,97.11
2019-04-05T22:35:55.075Z,97.26
2019-04-05T22:38:23.680Z,97.43
2019-04-05T22:40:52.251Z,97.24
2019-04-05T22:43:20.908Z,97.39
2019-04-05T22:45:50.003Z,97.31
2019-04-05T22:48:18.576Z,97.42
2019-04-05T22:50:47.187Z,97.33
2019-04-05T22:53:15.930Z,97.34
2019-04-05T22:55:44.532Z,97.31
2019-04-05T22:58:13.115Z,97.37
2019-04-05T23:00:41.728Z,97.47
2019-04-05T23:03:10.297Z,97.40
2019-04-05T23:05:38.895Z,97.38
2019-04-05T23:08:07.469Z,97.57
2019-04-05T23:10:36.379Z,97.54
2019-04-05T23:13:04.951Z,97.45
2019-04-05T23:15:33.514Z,97.21
2019-04-05T23:18:02.088Z,97.21
2019-04-05T23:20:30.706Z,97.40
2019-04-05T23:22:59.577Z,97.51
2019-04-05T23:25:28.844Z,97.60
2019-04-05T23:27:57.423Z,97.59
2019-04-05T23:30:27.596Z,97.64
2019-04-05T23:32:56.157Z,97.62
2019-04-05T23:35:24.762Z,97.69
2019-04-05T23:37:53.340Z,97.80
2019-04-05T23:40:21.938Z,97.89
2019-04-05T23:42:50.593Z,97.70
2019-04-05T23:45:19.469Z,98.02
2019-04-05T23:47:48.044Z,97.91
2019-04-05T23:50:16.640Z,97.91
2019-04-05T23:52:45.142Z,97.92
2019-04-05T23:55:13.736Z,97.93
2019-04-05T23:57:42.347Z,98.06
